createdAt,value
2023-05-16T00:02:11.209Z,5.30
2023-05-16T00:04:39.164Z,5.00
2023-05-16T00:07:07.094Z,5.60
2023-05-16T00:09:34.847Z,5.90
2023-05-16T00:12:02.638Z,6.93
2023-05-16T00:14:31.839Z,5.60
2023-05-16T00:16:59.696Z,6.82
2023-05-16T00:19:28.056Z,6.90
2023-05-16T00:21:56.080Z,6.10
2023-05-16T00:24:23.871Z,6.38
2023-05-16T00:26:51.566Z,6.43
2023-05-16T00:29:19.649Z,6.28
2023-05-16T00:31:48.795Z,5.03
2023-05-16T00:34:16.683Z,4.82
2023-05-16T00:36:45.421Z,4.50
2023-05-16T00:39:13.308Z,5.43
2023-05-16T00:41:41.183Z,7.00
2023-05-16T00:44:08.978Z,6.10
2023-05-16T00:46:37.707Z,6.10
2023-05-16T00:49:07.010Z,7.40
2023-05-16T00:51:35.331Z,7.85
2023-05-16T00:54:04.219Z,10.90
2023-05-16T00:56:32.082Z,8.43
2023-05-16T00:59:00.226Z,10.55
2023-05-16T01:01:29.617Z,10.75
2023-05-16T01:03:57.925Z,10.10
2023-05-16T01:06:27.622Z,9.75
2023-05-16T01:08:55.416Z,10.70
2023-05-16T01:11:28.297Z,9.40
2023-05-16T01:14:08.300Z,10.25
2023-05-16T01:16:41.842Z,9.70
2023-05-16T01:19:22.340Z,11.60
2023-05-16T01:22:05.554Z,12.07
2023-05-16T01:24:41.525Z,11.15
2023-05-16T01:27:13.005Z,10.35
2023-05-16T01:29:40.812Z,10.75
2023-05-16T01:32:09.467Z,10.77
2023-05-16T01:34:37.287Z,12.18
2023-05-16T01:37:14.809Z,10.65
2023-05-16T01:39:49.547Z,10.00
2023-05-16T01:42:20.389Z,9.77
2023-05-16T01:44:55.413Z,8.25
2023-05-16T01:47:27.674Z,8.77
2023-05-16T01:50:01.348Z,8.98
2023-05-16T01:52:33.248Z,8.18
2023-05-16T01:55:02.036Z,8.50
2023-05-16T01:57:31.784Z,9.88
2023-05-16T01:59:59.852Z,11.80
2023-05-16T02:02:27.573Z,13.35
2023-05-16T02:04:55.403Z,13.57
2023-05-16T02:07:23.652Z,13.73
2023-05-16T02:09:51.572Z,14.88
2023-05-16T02:12:19.309Z,16.30
2023-05-16T02:14:48.373Z,14.82
2023-05-16T02:17:16.167Z,15.38
2023-05-16T02:19:44.008Z,15.00
2023-05-16T02:22:12.559Z,14.38
2023-05-16T02:24:40.526Z,13.27
2023-05-16T02:27:08.340Z,15.63
2023-05-16T02:29:36.248Z,15.43
2023-05-16T02:32:05.870Z,15.50
2023-05-16T02:34:33.613Z,15.55
2023-05-16T02:37:01.725Z,16.65
2023-05-16T02:39:30.059Z,14.88
2023-05-16T02:41:57.831Z,16.55
2023-05-16T02:44:25.692Z,15.98
2023-05-16T02:46:53.423Z,14.65
2023-05-16T02:49:22.556Z,14.65
2023-05-16T02:51:50.472Z,16.55
2023-05-16T02:54:18.340Z,16.67
2023-05-16T02:56:46.217Z,17.08
2023-05-16T02:59:14.001Z,16.98
2023-05-16T03:01:41.719Z,16.27
2023-05-16T03:04:09.630Z,17.92
2023-05-16T03:06:38.856Z,20.60
2023-05-16T03:09:07.848Z,19.85
2023-05-16T03:11:36.885Z,18.95
2023-05-16T03:14:05.781Z,19.98
2023-05-16T03:16:33.674Z,18.80
2023-05-16T03:19:01.552Z,19.30
2023-05-16T03:21:29.407Z,18.42
2023-05-16T03:23:58.679Z,18.48
2023-05-16T03:26:26.556Z,17.50
2023-05-16T03:28:54.546Z,17.05
2023-05-16T03:31:22.751Z,18.05
2023-05-16T03:33:50.585Z,16.83
2023-05-16T03:36:18.407Z,18.67
2023-05-16T03:38:46.292Z,19.52
2023-05-16T03:41:15.466Z,18.67
2023-05-16T03:43:43.176Z,19.48
2023-05-16T03:46:10.995Z,19.27
2023-05-16T03:48:38.784Z,20.35
2023-05-16T03:51:06.987Z,19.83
2023-05-16T03:53:34.739Z,19.33
2023-05-16T03:56:02.529Z,18.60
2023-05-16T03:58:31.682Z,18.92
2023-05-16T04:00:59.832Z,19.17
2023-05-16T04:03:28.737Z,20.23
2023-05-16T04:05:57.213Z,18.73
2023-05-16T04:08:25.668Z,17.85
2023-05-16T04:10:53.413Z,18.33
2023-05-16T04:13:21.267Z,17.98
2023-05-16T04:15:50.525Z,16.80
2023-05-16T04:18:19.489Z,18.10
2023-05-16T04:20:47.586Z,16.77
2023-05-16T04:23:15.392Z,16.30
2023-05-16T04:25:43.269Z,15.68
2023-05-16T04:28:11.097Z,16.70
2023-05-16T04:30:38.863Z,16.88
2023-05-16T04:33:08.441Z,15.55
2023-05-16T04:35:37.698Z,15.77
2023-05-16T04:38:05.639Z,14.60
2023-05-16T04:40:33.862Z,14.93
2023-05-16T04:43:01.635Z,15.85
2023-05-16T04:45:29.569Z,14.30
2023-05-16T04:47:57.725Z,14.23
2023-05-16T04:50:26.892Z,13.73
2023-05-16T04:52:56.407Z,15.45
2023-05-16T04:55:24.438Z,14.15
2023-05-16T04:57:52.207Z,14.70
2023-05-16T05:00:20.621Z,14.73
2023-05-16T05:02:48.394Z,14.73
2023-05-16T05:05:16.209Z,14.85
2023-05-16T05:07:45.476Z,13.25
2023-05-16T05:10:13.360Z,13.57
2023-05-16T05:12:41.031Z,13.65
2023-05-16T05:15:09.296Z,14.05
2023-05-16T05:17:37.828Z,13.80
2023-05-16T05:20:08.668Z,14.25
2023-05-16T05:22:36.426Z,13.10
2023-05-16T05:25:06.497Z,12.65
2023-05-16T05:27:34.468Z,12.00
2023-05-16T05:30:02.227Z,12.48
2023-05-16T05:32:30.036Z,12.10
2023-05-16T05:34:57.848Z,12.63
2023-05-16T05:37:25.668Z,12.63
2023-05-16T05:39:53.459Z,12.60
2023-05-16T05:42:22.752Z,12.90
2023-05-16T05:44:50.613Z,12.18
2023-05-16T05:47:18.491Z,11.45
2023-05-16T05:49:46.277Z,12.00
2023-05-16T05:52:14.429Z,11.77
2023-05-16T05:54:42.263Z,11.48
2023-05-16T05:57:10.067Z,11.50
2023-05-16T05:59:39.189Z,11.88
2023-05-16T06:02:07.450Z,11.65
2023-05-16T06:04:35.384Z,11.15
2023-05-16T06:07:03.180Z,11.55
2023-05-16T06:09:31.032Z,11.93
2023-05-16T06:11:58.860Z,11.98
2023-05-16T06:14:26.933Z,11.70
2023-05-16T06:16:56.403Z,11.02
2023-05-16T06:19:24.998Z,11.15
2023-05-16T06:21:52.968Z,11.00
2023-05-16T06:24:20.704Z,11.00
2023-05-16T06:26:51.599Z,11.25
2023-05-16T06:29:19.520Z,10.80
2023-05-16T06:31:48.096Z,11.43
2023-05-16T06:34:17.217Z,10.88
2023-05-16T06:36:45.373Z,11.45
2023-05-16T06:39:13.198Z,10.15
2023-05-16T06:41:40.985Z,11.70
2023-05-16T06:44:09.119Z,11.75
2023-05-16T06:46:37.259Z,11.73
2023-05-16T06:49:06.913Z,10.98
2023-05-16T06:51:36.093Z,12.40
2023-05-16T06:54:04.226Z,11.25
2023-05-16T06:56:32.522Z,13.02
2023-05-16T06:59:01.787Z,12.77
2023-05-16T07:01:29.634Z,12.23
2023-05-16T07:03:57.523Z,13.25
2023-05-16T07:06:25.489Z,12.38
2023-05-16T07:08:54.641Z,13.35
2023-05-16T07:11:22.500Z,12.85
2023-05-16T07:13:50.226Z,13.60
2023-05-16T07:16:18.390Z,13.93
2023-05-16T07:18:46.351Z,14.60
2023-05-16T07:21:14.212Z,14.35
2023-05-16T07:23:42.147Z,13.23
2023-05-16T07:26:11.303Z,14.05
2023-05-16T07:28:39.149Z,14.13
2023-05-16T07:31:08.332Z,15.77
2023-05-16T07:33:36.402Z,15.43
2023-05-16T07:36:16.091Z,15.88
2023-05-16T07:38:45.182Z,15.27
2023-05-16T07:41:14.522Z,15.60
2023-05-16T07:43:42.361Z,16.23
2023-05-16T07:46:10.257Z,15.93
2023-05-16T07:48:38.173Z,16.40
2023-05-16T07:51:05.968Z,16.08
2023-05-16T07:53:33.750Z,21.20
2023-05-16T07:56:01.538Z,16.95
2023-05-16T07:58:30.947Z,18.30
2023-05-16T08:00:58.969Z,18.20
2023-05-16T08:03:27.169Z,18.38
2023-05-16T08:05:55.100Z,18.60
2023-05-16T08:08:22.896Z,18.70
2023-05-16T08:10:50.921Z,18.83
2023-05-16T08:13:18.745Z,18.50
2023-05-16T08:15:47.933Z,19.02
2023-05-16T08:18:17.172Z,19.70
2023-05-16T08:20:45.748Z,18.00
2023-05-16T08:23:13.864Z,18.80
2023-05-16T08:25:41.915Z,18.73
2023-05-16T08:28:09.787Z,18.27
2023-05-16T08:30:37.955Z,18.60
2023-05-16T08:33:09.287Z,20.75
2023-05-16T08:35:37.135Z,20.10
2023-05-16T08:38:05.018Z,21.77
2023-05-16T08:40:33.316Z,20.50
2023-05-16T08:43:01.282Z,20.63
2023-05-16T08:45:31.399Z,21.85
2023-05-16T08:48:03.724Z,22.05
2023-05-16T08:50:33.763Z,20.70
2023-05-16T08:53:07.804Z,22.13
2023-05-16T08:55:36.317Z,23.00
2023-05-16T08:58:05.322Z,22.45
2023-05-16T09:00:33.123Z,23.27
2023-05-16T09:03:02.127Z,22.75
2023-05-16T09:05:32.611Z,22.95
2023-05-16T09:08:00.573Z,22.33
2023-05-16T09:10:28.338Z,22.05
2023-05-16T09:12:56.281Z,23.92
2023-05-16T09:15:24.073Z,23.45
2023-05-16T09:17:52.664Z,22.88
2023-05-16T09:20:21.682Z,21.95
2023-05-16T09:22:56.538Z,19.50
2023-05-16T09:25:31.119Z,21.10
2023-05-16T09:28:01.905Z,20.77
2023-05-16T09:30:31.716Z,19.83
2023-05-16T09:33:00.253Z,20.48
2023-05-16T09:38:00.433Z,20.90
2023-05-16T09:40:28.174Z,22.52
2023-05-16T09:43:05.472Z,25.20
2023-05-16T09:45:34.222Z,24.25
2023-05-16T09:48:06.861Z,22.20
2023-05-16T09:50:35.802Z,27.27
2023-05-16T09:53:05.460Z,32.58
2023-05-16T09:55:33.790Z,37.92
2023-05-16T09:58:01.957Z,37.35
2023-05-16T10:00:34.450Z,35.70
2023-05-16T10:03:05.632Z,26.70
2023-05-16T10:05:34.738Z,21.42
2023-05-16T10:08:06.426Z,19.35
2023-05-16T10:10:38.334Z,19.65
2023-05-16T10:13:08.708Z,18.38
2023-05-16T10:15:38.884Z,21.52
2023-05-16T10:18:12.302Z,21.05
2023-05-16T10:20:43.444Z,22.80
2023-05-16T10:23:17.959Z,25.10
2023-05-16T10:25:47.373Z,24.60
2023-05-16T10:28:16.339Z,25.58
2023-05-16T10:30:45.517Z,28.02
2023-05-16T10:33:15.104Z,27.42
2023-05-16T10:35:43.453Z,27.42
2023-05-16T10:38:15.150Z,29.40
2023-05-16T10:40:43.829Z,32.40
2023-05-16T10:43:11.701Z,32.70
2023-05-16T10:45:42.103Z,34.00
2023-05-16T10:48:13.813Z,35.78
2023-05-16T10:50:44.994Z,27.90
2023-05-16T10:53:32.385Z,30.93
2023-05-16T10:56:09.331Z,25.00
2023-05-16T10:58:45.037Z,23.50
2023-05-16T11:01:17.416Z,23.83
2023-05-16T11:04:12.510Z,23.63
2023-05-16T11:06:51.180Z,23.83
2023-05-16T11:09:23.434Z,25.10
2023-05-16T11:12:00.616Z,26.55
2023-05-16T11:14:32.166Z,28.77
2023-05-16T11:17:04.996Z,30.17
2023-05-16T11:19:35.440Z,32.20
2023-05-16T11:22:16.998Z,34.83
2023-05-16T11:24:57.366Z,33.10
2023-05-16T11:27:27.945Z,35.60
2023-05-16T11:29:57.709Z,35.00
2023-05-16T11:32:26.514Z,41.35
2023-05-16T11:34:54.881Z,40.63
2023-05-16T11:37:22.917Z,40.53
2023-05-16T11:39:52.403Z,39.90
2023-05-16T11:42:20.350Z,37.10
2023-05-16T11:44:48.143Z,35.65
2023-05-16T11:47:16.067Z,35.95
2023-05-16T11:49:43.938Z,37.78
2023-05-16T11:52:11.841Z,37.58
2023-05-16T11:54:41.593Z,37.80
2023-05-16T11:57:11.276Z,39.55
2023-05-16T11:59:39.630Z,37.20
2023-05-16T12:02:09.695Z,35.20
2023-05-16T12:04:38.796Z,36.55
2023-05-16T12:07:07.067Z,35.42
2023-05-16T12:09:34.876Z,35.85
2023-05-16T12:12:06.933Z,35.67
2023-05-16T12:17:05.567Z,32.42
2023-05-16T12:19:33.643Z,33.45
2023-05-16T12:22:01.495Z,34.45
2023-05-16T12:24:33.069Z,32.33
2023-05-16T12:27:00.969Z,32.28
2023-05-16T12:29:28.830Z,30.95
2023-05-16T12:31:58.068Z,29.60
2023-05-16T12:34:30.815Z,29.08
2023-05-16T12:37:02.013Z,28.73
2023-05-16T12:39:38.935Z,26.87
2023-05-16T12:42:09.592Z,24.10
2023-05-16T12:44:37.377Z,23.15
2023-05-16T12:47:13.537Z,21.55
2023-05-16T12:49:46.776Z,20.48
2023-05-16T12:52:20.604Z,19.60
2023-05-16T12:54:49.509Z,19.85
2023-05-16T12:57:17.314Z,20.85
2023-05-16T12:59:45.117Z,19.27
2023-05-16T13:02:14.236Z,21.23
2023-05-16T13:04:42.006Z,19.02
2023-05-16T13:07:09.756Z,18.70
2023-05-16T13:09:37.861Z,19.17
2023-05-16T13:12:06.145Z,17.27
2023-05-16T13:14:33.973Z,18.67
2023-05-16T13:17:01.902Z,18.42
2023-05-16T13:19:31.715Z,17.85
2023-05-16T13:21:59.757Z,19.50
2023-05-16T13:24:27.672Z,18.58
2023-05-16T13:26:55.639Z,18.52
2023-05-16T13:29:23.385Z,19.17
2023-05-16T13:31:51.359Z,20.88
2023-05-16T13:34:19.136Z,19.65
2023-05-16T13:36:54.506Z,18.17
2023-05-16T13:39:23.272Z,17.13
2023-05-16T13:41:51.509Z,17.52
2023-05-16T13:44:19.372Z,17.33
2023-05-16T13:46:47.166Z,16.25
2023-05-16T13:49:15.109Z,18.00
2023-05-16T13:51:42.891Z,17.58
2023-05-16T13:54:12.018Z,19.17
2023-05-16T13:56:39.904Z,19.23
2023-05-16T13:59:09.091Z,18.63
2023-05-16T14:01:38.141Z,16.77
2023-05-16T14:04:06.568Z,17.75
2023-05-16T14:06:34.523Z,17.92
2023-05-16T14:09:03.371Z,17.27
2023-05-16T14:11:32.439Z,17.85
2023-05-16T14:14:00.342Z,18.23
2023-05-16T14:16:29.403Z,18.73
2023-05-16T14:18:57.310Z,19.02
2023-05-16T14:21:25.109Z,18.33
2023-05-16T14:23:52.894Z,18.27
2023-05-16T14:26:22.737Z,16.00
2023-05-16T14:28:52.072Z,13.70
2023-05-16T14:31:20.029Z,15.20
2023-05-16T14:33:47.845Z,13.07
2023-05-16T14:36:16.158Z,10.15
2023-05-16T14:38:44.144Z,10.55
2023-05-16T14:41:12.204Z,9.10
2023-05-16T14:43:40.015Z,9.02
2023-05-16T14:46:09.355Z,7.68
2023-05-16T14:48:37.301Z,7.07
2023-05-16T14:51:05.250Z,7.07
2023-05-16T14:53:33.163Z,8.05
2023-05-16T14:56:02.735Z,7.47
2023-05-16T14:58:31.075Z,7.70
2023-05-16T15:00:58.862Z,6.72
2023-05-16T15:03:28.049Z,6.75
2023-05-16T15:05:55.860Z,6.55
2023-05-16T15:08:23.995Z,5.88
2023-05-16T15:10:52.081Z,5.65
2023-05-16T15:13:20.231Z,6.18
2023-05-16T15:15:48.368Z,5.15
2023-05-16T15:18:16.217Z,5.13
2023-05-16T15:20:45.371Z,4.75
2023-05-16T15:23:13.170Z,4.53
2023-05-16T15:25:40.881Z,4.47
2023-05-16T15:28:08.651Z,4.40
2023-05-16T15:30:36.486Z,4.50
2023-05-16T15:33:04.686Z,4.72
2023-05-16T15:35:32.894Z,4.63
2023-05-16T15:38:02.056Z,4.88
2023-05-16T15:40:32.049Z,4.40
2023-05-16T15:42:59.833Z,3.70
2023-05-16T15:45:27.777Z,3.28
2023-05-16T15:47:55.742Z,3.58
2023-05-16T15:50:23.807Z,3.72
2023-05-16T15:52:51.610Z,4.10
2023-05-16T15:55:20.777Z,3.78
2023-05-16T15:57:48.572Z,4.05
2023-05-16T16:00:17.501Z,3.55
2023-05-16T16:02:46.257Z,3.30
2023-05-16T16:05:14.244Z,4.32
2023-05-16T16:07:42.389Z,3.80
2023-05-16T16:10:11.333Z,3.85
2023-05-16T16:12:40.615Z,3.10
2023-05-16T16:15:10.946Z,3.40
2023-05-16T16:17:38.893Z,3.30
2023-05-16T16:20:07.717Z,3.05
2023-05-16T16:22:35.517Z,2.80
2023-05-16T16:25:03.379Z,2.70
2023-05-16T16:27:31.163Z,2.92
2023-05-16T16:30:00.929Z,2.75
2023-05-16T16:32:28.708Z,3.20
2023-05-16T16:34:56.626Z,2.55
2023-05-16T16:37:24.375Z,2.90
2023-05-16T16:39:52.174Z,2.85
2023-05-16T16:42:20.071Z,2.80
2023-05-16T16:44:47.934Z,2.40
2023-05-16T16:47:17.075Z,2.80
2023-05-16T16:49:45.509Z,2.58
2023-05-16T16:52:13.427Z,2.10
2023-05-16T16:54:41.495Z,1.88
2023-05-16T16:57:09.259Z,1.98
2023-05-16T16:59:37.081Z,1.90
2023-05-16T17:02:04.999Z,2.03
2023-05-16T17:04:35.549Z,2.42
2023-05-16T17:07:03.370Z,2.00
2023-05-16T17:09:31.381Z,2.15
2023-05-16T17:12:04.536Z,2.50
2023-05-16T17:14:32.423Z,2.38
2023-05-16T17:17:00.243Z,3.00
2023-05-16T17:19:28.247Z,2.72
2023-05-16T17:21:57.589Z,3.20
2023-05-16T17:24:25.369Z,3.00
2023-05-16T17:26:53.268Z,2.90
2023-05-16T17:29:21.164Z,3.10
2023-05-16T17:31:48.912Z,3.10
2023-05-16T17:34:16.939Z,3.10
2023-05-16T17:36:45.465Z,3.03
2023-05-16T17:39:15.097Z,3.33
2023-05-16T17:41:43.218Z,3.15
2023-05-16T17:44:10.961Z,3.08
2023-05-16T17:46:39.434Z,3.22
2023-05-16T17:49:08.441Z,3.33
2023-05-16T17:51:49.765Z,2.88
2023-05-16T17:54:19.721Z,2.88
2023-05-16T17:56:47.768Z,2.70
2023-05-16T17:59:16.275Z,2.75
2023-05-16T18:01:44.481Z,2.70
2023-05-16T18:04:13.270Z,2.53
2023-05-16T18:06:41.614Z,2.47
2023-05-16T18:09:10.258Z,2.97
2023-05-16T18:11:40.565Z,2.55
2023-05-16T18:14:09.556Z,2.75
2023-05-16T18:16:37.425Z,2.95
2023-05-16T18:19:08.659Z,2.58
2023-05-16T18:21:38.253Z,2.95
2023-05-16T18:24:08.344Z,3.20
2023-05-16T18:26:36.416Z,2.80
2023-05-16T18:29:06.013Z,3.25
2023-05-16T18:31:34.102Z,3.42
2023-05-16T18:34:02.856Z,3.55
2023-05-16T18:36:30.793Z,3.33
2023-05-16T18:38:58.584Z,4.10
2023-05-16T18:41:27.024Z,4.03
2023-05-16T18:43:55.093Z,4.05
2023-05-16T18:46:24.305Z,4.25
2023-05-16T18:48:52.587Z,4.45
2023-05-16T18:51:20.878Z,4.85
2023-05-16T18:53:48.656Z,4.28
2023-05-16T18:56:16.432Z,4.10
2023-05-16T18:58:44.291Z,4.32
2023-05-16T19:01:12.177Z,4.80
2023-05-16T19:03:41.443Z,4.50
2023-05-16T19:06:09.447Z,3.90
2023-05-16T19:08:47.471Z,4.30
2023-05-16T19:11:16.856Z,4.45
2023-05-16T19:13:44.701Z,4.55
2023-05-16T19:16:12.586Z,4.40
2023-05-16T19:18:42.158Z,4.53
2023-05-16T19:21:13.050Z,5.05
2023-05-16T19:23:41.016Z,5.30
2023-05-16T19:26:08.846Z,4.35
2023-05-16T19:28:37.513Z,4.22
2023-05-16T19:31:05.247Z,4.90
2023-05-16T19:33:33.023Z,4.53
2023-05-16T19:36:03.026Z,4.47
2023-05-16T19:38:30.845Z,4.95
2023-05-16T19:40:59.808Z,4.55
2023-05-16T19:43:27.668Z,4.90
2023-05-16T19:45:55.386Z,4.20
2023-05-16T19:48:23.301Z,4.28
2023-05-16T19:50:51.972Z,3.80
2023-05-16T19:53:21.218Z,4.70
2023-05-16T19:55:49.506Z,4.80
2023-05-16T19:58:17.891Z,4.10
2023-05-16T20:00:46.976Z,4.60
2023-05-16T20:03:14.843Z,13.70
2023-05-16T20:05:42.826Z,5.38
2023-05-16T20:08:11.184Z,4.70
2023-05-16T20:10:40.823Z,4.00
2023-05-16T20:13:08.830Z,5.15
2023-05-16T20:15:36.784Z,4.60
2023-05-16T20:18:04.756Z,4.45
2023-05-16T20:20:32.562Z,4.15
2023-05-16T20:23:00.327Z,4.50
2023-05-16T20:25:28.374Z,4.55
2023-05-16T20:27:57.681Z,4.53
2023-05-16T20:30:25.755Z,4.50
2023-05-16T20:32:53.605Z,5.18
2023-05-16T20:35:21.621Z,4.63
2023-05-16T20:37:49.423Z,4.80
2023-05-16T20:40:17.216Z,4.20
2023-05-16T20:42:45.061Z,4.82
2023-05-16T20:45:14.234Z,4.45
2023-05-16T20:47:42.164Z,3.75
2023-05-16T20:50:10.622Z,3.92
2023-05-16T20:52:38.432Z,4.15
2023-05-16T20:55:07.100Z,4.28
2023-05-16T20:57:34.942Z,4.00
2023-05-16T21:00:03.286Z,4.22
2023-05-16T21:02:32.453Z,4.40
2023-05-16T21:05:06.159Z,4.30
2023-05-16T21:07:47.893Z,4.05
2023-05-16T21:10:15.777Z,4.60
2023-05-16T21:12:43.617Z,4.43
2023-05-16T21:15:11.519Z,5.05
2023-05-16T21:17:41.515Z,4.43
2023-05-16T21:20:10.307Z,4.65
2023-05-16T21:22:38.130Z,4.32
2023-05-16T21:25:06.575Z,4.47
2023-05-16T21:27:34.302Z,3.75
2023-05-16T21:30:02.168Z,3.90
2023-05-16T21:32:32.487Z,3.63
2023-05-16T21:35:04.363Z,4.22
2023-05-16T21:37:32.234Z,4.10
2023-05-16T21:40:00.072Z,4.13
2023-05-16T21:42:27.875Z,4.22
2023-05-16T21:44:55.711Z,4.05
2023-05-16T21:47:23.495Z,4.15
2023-05-16T21:49:51.314Z,3.85
2023-05-16T21:52:20.548Z,3.25
2023-05-16T21:54:51.563Z,3.50
2023-05-16T21:57:20.472Z,3.30
2023-05-16T21:59:50.759Z,2.58
2023-05-16T22:02:22.718Z,3.15
2023-05-16T22:04:51.362Z,2.67
2023-05-16T22:07:20.767Z,2.60
2023-05-16T22:09:50.931Z,2.78
2023-05-16T22:12:18.755Z,2.45
2023-05-16T22:14:46.718Z,2.55
2023-05-16T22:17:14.552Z,2.83
2023-05-16T22:19:43.152Z,3.00
2023-05-16T22:22:11.023Z,2.83
2023-05-16T22:24:40.415Z,2.40
2023-05-16T22:27:08.261Z,2.45
2023-05-16T22:29:38.865Z,2.70
2023-05-16T22:32:08.274Z,2.38
2023-05-16T22:34:36.403Z,2.50
2023-05-16T22:37:04.161Z,2.40
2023-05-16T22:39:31.906Z,3.10
2023-05-16T22:42:01.724Z,2.40
2023-05-16T22:44:29.855Z,2.55
2023-05-16T22:46:57.584Z,2.10
2023-05-16T22:49:25.439Z,2.55
2023-05-16T22:51:53.300Z,2.20
2023-05-16T22:54:21.035Z,1.90
2023-05-16T22:56:48.857Z,2.20
2023-05-16T22:59:19.616Z,2.08
2023-05-16T23:01:47.808Z,2.08
2023-05-16T23:04:16.185Z,2.20
2023-05-16T23:06:44.064Z,2.17
2023-05-16T23:09:11.838Z,2.35
2023-05-16T23:11:39.581Z,2.20
2023-05-16T23:14:07.388Z,1.83
2023-05-16T23:16:39.262Z,2.17
2023-05-16T23:19:09.293Z,2.08
2023-05-16T23:21:37.561Z,2.22
2023-05-16T23:24:05.572Z,2.00
2023-05-16T23:26:33.424Z,1.60
2023-05-16T23:29:01.188Z,1.90
2023-05-16T23:31:29.260Z,2.22
2023-05-16T23:33:58.475Z,2.03
2023-05-16T23:36:26.447Z,1.50
2023-05-16T23:38:54.262Z,2.05
2023-05-16T23:41:24.077Z,1.75
2023-05-16T23:43:52.247Z,1.58
2023-05-16T23:46:20.073Z,1.65
2023-05-16T23:48:48.113Z,1.85
2023-05-16T23:51:18.080Z,1.90
2023-05-16T23:53:45.853Z,2.00
2023-05-16T23:56:13.680Z,2.30
2023-05-16T23:58:41.452Z,1.65
